Chatterton, Georgia
Current Conditions -  °F | °C
As of 9:05 AM on Monday 22 Dec 2014 (Local Time) from KAMG Reporting Station
Haze Haze  
Wind Chill: 49°   Ceiling: 200
Heat Index: 49°   Visibility: 2.5mi
Dew Point: 48°   Wind: 0mph
Humidity: 97%   Direction: NA
Pressure: 30.02"   Gusts: NA
Location:  31.4253°N, 82.5972°W
Report Text: KAMG 221405Z AUTO 00000KT 2 1/2SM BR OVC002 09/09 A3002 RMK AO2 T00940089
Loading
Personal Weather Stations






























Interactive Weather Map New forecast layout! Learn more

10-Day Weather Forecast

Advertisements
Track Severe Weather on mobile